Time;durP1;ratioP1;P1;durP2;ratioP2;P2;SDS_P1;SDS_P2;PMS_P1;PMS_P2;Temp;Humidity;BMP_temperature;BMP_pressure;BME280_temperature;BME280_humidity;BME280_pressure;Samples;Min_cycle;Max_cycle;Signal;HPM_P1;HPM_P2
2022/09/27 00:02:19;;;;;;;8.15;1.10;;;;;;;;;;5325199;28;20031;-64
2022/09/27 00:04:50;;;;;;;7.18;1.02;;;;;;;;;;5325316;28;20015;-65
2022/09/27 00:07:22;;;;;;;9.10;0.70;;;;;;;;;;5325867;28;20550;-65
2022/09/27 00:09:53;;;;;;;5.65;0.52;;;;;;;;;;5324448;28;20058;-64
2022/09/27 00:12:24;;;;;;;7.47;0.60;;;;;;;;;;5325579;28;20373;-65
2022/09/27 00:14:55;;;;;;;7.55;0.60;;;;;;;;;;5324692;28;20028;-64
2022/09/27 00:17:28;;;;;;;8.90;0.63;;;;;;;;;;5325101;28;20023;-65
2022/09/27 00:19:59;;;;;;;5.40;0.50;;;;;;;;;;5325704;27;20535;-64
2022/09/27 00:22:31;;;;;;;5.45;0.55;;;;;;;;;;5324364;28;20019;-64
2022/09/27 00:25:04;;;;;;;5.60;0.50;;;;;;;;;;5325582;28;20032;-65
2022/09/27 00:27:35;;;;;;;4.63;0.40;;;;;;;;;;5324973;28;20077;-65
2022/09/27 00:30:07;;;;;;;5.95;0.40;;;;;;;;;;5324576;28;20032;-64
2022/09/27 00:32:38;;;;;;;5.10;0.40;;;;;;;;;;5324897;28;20301;-65
2022/09/27 00:35:10;;;;;;;14.60;0.70;;;;;;;;;;5325469;28;20072;-65
2022/09/27 00:37:41;;;;;;;8.63;1.00;;;;;;;;;;5323926;28;20016;-64
2022/09/27 00:40:12;;;;;;;5.10;0.30;;;;;;;;;;5324944;28;20099;-64
2022/09/27 00:42:44;;;;;;;7.95;0.47;;;;;;;;;;5324712;28;20482;-64
2022/09/27 00:45:16;;;;;;;5.32;0.40;;;;;;;;;;5324120;28;20029;-64
2022/09/27 00:47:47;;;;;;;4.28;0.52;;;;;;;;;;5324468;28;20023;-64
2022/09/27 00:50:21;;;;;;;5.80;0.40;;;;;;;;;;5324249;28;20482;-64
2022/09/27 00:53:03;;;;;;;4.05;0.30;;;;;;;;;;5324447;28;20042;-65
2022/09/27 00:55:40;;;;;;;4.47;0.40;;;;;;;;;;5324631;28;20028;-64
2022/09/27 00:58:12;;;;;;;5.75;0.65;;;;;;;;;;5324284;28;20024;-64
2022/09/27 01:00:44;;;;;;;6.68;0.40;;;;;;;;;;5324431;28;20019;-64
2022/09/27 01:03:21;;;;;;;5.20;0.30;;;;;;;;;;5324840;28;20027;-64
2022/09/27 01:05:53;;;;;;;4.15;0.32;;;;;;;;;;5323363;27;20038;-64
2022/09/27 01:08:24;;;;;;;4.18;0.52;;;;;;;;;;5324702;27;20028;-64
2022/09/27 01:11:13;;;;;;;6.78;0.30;;;;;;;;;;5324238;28;20026;-64
2022/09/27 01:13:58;;;;;;;3.42;0.30;;;;;;;;;;5323907;28;20107;-65
2022/09/27 01:16:39;;;;;;;5.10;0.30;;;;;;;;;;5324078;28;20080;-64
2022/09/27 01:19:39;;;;;;;3.00;0.30;;;;;;;;;;5323691;28;20020;-64
2022/09/27 01:22:10;;;;;;;2.92;0.20;;;;;;;;;;5324381;28;20020;-64
2022/09/27 01:24:50;;;;;;;8.14;0.30;;;;;;;;;;5323776;28;20028;-64
2022/09/27 01:27:49;;;;;;;3.58;0.20;;;;;;;;;;5323372;28;20028;-64
2022/09/27 01:30:41;;;;;;;3.95;0.40;;;;;;;;;;5324129;28;20107;-64
2022/09/27 01:33:24;;;;;;;4.63;0.20;;;;;;;;;;5323283;28;20020;-64
2022/09/27 01:36:17;;;;;;;3.78;0.50;;;;;;;;;;5323942;28;20026;-64
2022/09/27 01:39:00;;;;;;;4.43;0.95;;;;;;;;;;5323458;28;20495;-65
2022/09/27 01:41:31;;;;;;;3.58;0.30;;;;;;;;;;5322555;28;20075;-65
2022/09/27 01:44:05;;;;;;;2.95;0.30;;;;;;;;;;5324077;28;20031;-64
2022/09/27 01:46:38;;;;;;;3.42;0.40;;;;;;;;;;5322674;28;20380;-64
2022/09/27 01:49:14;;;;;;;2.63;0.28;;;;;;;;;;5323843;28;20102;-64
2022/09/27 01:51:51;;;;;;;4.90;0.73;;;;;;;;;;5323104;28;20077;-64
2022/09/27 01:54:25;;;;;;;4.75;0.20;;;;;;;;;;5322844;28;20091;-65
2022/09/27 01:56:57;;;;;;;2.97;0.40;;;;;;;;;;5323803;28;20497;-64
2022/09/27 01:59:32;;;;;;;3.10;0.43;;;;;;;;;;5323282;28;20024;-64
2022/09/27 02:02:07;;;;;;;3.72;0.30;;;;;;;;;;5323065;28;20040;-64
2022/09/27 02:04:39;;;;;;;1.40;0.10;;;;;;;;;;5323394;28;20351;-64
2022/09/27 02:07:14;;;;;;;2.55;0.20;;;;;;;;;;5324014;28;20043;-64
2022/09/27 02:10:00;;;;;;;5.40;0.20;;;;;;;;;;5322377;28;20072;-65
2022/09/27 02:12:34;;;;;;;5.28;0.55;;;;;;;;;;5323284;28;20012;-64
2022/09/27 02:15:08;;;;;;;1.95;0.17;;;;;;;;;;5322989;28;20455;-64
2022/09/27 02:17:39;;;;;;;2.95;0.10;;;;;;;;;;5323079;28;20084;-64
2022/09/27 02:20:11;;;;;;;2.95;0.50;;;;;;;;;;5323723;28;20020;-64
2022/09/27 02:22:50;;;;;;;2.38;0.15;;;;;;;;;;5322255;28;20235;-64
2022/09/27 02:25:30;;;;;;;2.63;0.50;;;;;;;;;;5323470;28;20030;-64
2022/09/27 02:28:19;;;;;;;2.97;0.20;;;;;;;;;;5323690;28;20015;-64
2022/09/27 02:30:51;;;;;;;7.03;0.40;;;;;;;;;;5322153;28;20024;-64
2022/09/27 02:33:25;;;;;;;6.65;0.28;;;;;;;;;;5323748;28;20355;-64
2022/09/27 02:35:56;;;;;;;5.75;0.30;;;;;;;;;;5322958;28;20020;-65
2022/09/27 02:38:27;;;;;;;4.35;0.25;;;;;;;;;;5322991;28;20027;-64
2022/09/27 02:40:59;;;;;;;3.03;0.30;;;;;;;;;;5323415;28;20051;-65
2022/09/27 02:43:31;;;;;;;4.20;0.20;;;;;;;;;;5321947;28;20559;-64
2022/09/27 02:46:06;;;;;;;3.53;0.20;;;;;;;;;;5323568;28;20454;-64
2022/09/27 02:48:52;;;;;;;4.55;0.50;;;;;;;;;;5322868;28;20095;-65
2022/09/27 02:51:26;;;;;;;4.63;1.10;;;;;;;;;;5322283;28;20089;-64
2022/09/27 02:54:15;;;;;;;4.55;0.40;;;;;;;;;;5323222;28;20031;-65
2022/09/27 02:56:46;;;;;;;;;;;;;;;;;;5322537;28;20466;-64
2022/09/27 02:59:22;;;;;;;7.68;0.47;;;;;;;;;;5323386;28;19903;-64
2022/09/27 03:02:00;;;;;;;3.80;0.20;;;;;;;;;;5322799;28;20023;-64
2022/09/27 03:04:34;;;;;;;4.72;0.30;;;;;;;;;;5323607;28;20389;-65
2022/09/27 03:07:05;;;;;;;2.35;0.20;;;;;;;;;;5327266;28;20015;-64
2022/09/27 03:09:41;;;;;;;2.92;0.28;;;;;;;;;;5326469;28;20099;-64
2022/09/27 03:12:12;;;;;;;3.55;0.30;;;;;;;;;;5326153;28;20047;-64
2022/09/27 03:14:43;;;;;;;3.80;0.30;;;;;;;;;;5326466;28;20473;-63
2022/09/27 03:17:15;;;;;;;5.43;0.28;;;;;;;;;;5327220;28;20323;-64
2022/09/27 03:19:46;;;;;;;2.88;0.25;;;;;;;;;;5325569;28;20051;-66
2022/09/27 03:22:17;;;;;;;6.75;0.40;;;;;;;;;;5326846;28;20485;-63
2022/09/27 03:24:48;;;;;;;5.43;0.40;;;;;;;;;;5325365;28;20423;-65
2022/09/27 03:27:20;;;;;;;4.30;0.38;;;;;;;;;;5326717;28;20063;-64
2022/09/27 03:29:51;;;;;;;6.13;0.20;;;;;;;;;;5326194;28;20343;-63
2022/09/27 03:32:22;;;;;;;4.38;0.30;;;;;;;;;;5326016;28;20406;-64
2022/09/27 03:34:54;;;;;;;6.15;0.30;;;;;;;;;;5326021;28;20019;-65
2022/09/27 03:37:28;;;;;;;6.22;0.40;;;;;;;;;;5326128;28;20486;-64
2022/09/27 03:39:59;;;;;;;6.80;0.50;;;;;;;;;;5325631;28;20019;-64
2022/09/27 03:42:30;;;;;;;3.80;0.28;;;;;;;;;;5326064;28;20024;-64
2022/09/27 03:45:02;;;;;;;7.65;0.80;;;;;;;;;;5326555;28;20027;-64
2022/09/27 03:47:33;;;;;;;6.03;0.43;;;;;;;;;;5325170;28;20026;-64
2022/09/27 03:50:05;;;;;;;2.28;0.40;;;;;;;;;;5326355;28;20055;-65
2022/09/27 03:52:36;;;;;;;7.13;0.68;;;;;;;;;;5325565;28;20366;-64
2022/09/27 03:55:08;;;;;;;3.30;0.30;;;;;;;;;;5325565;28;20485;-64
2022/09/27 03:57:43;;;;;;;5.10;0.40;;;;;;;;;;5325424;28;20023;-64
2022/09/27 04:00:14;;;;;;;4.22;0.30;;;;;;;;;;5325431;28;20478;-64
2022/09/27 04:02:45;;;;;;;8.63;0.50;;;;;;;;;;5325940;28;20096;-64
2022/09/27 04:05:16;;;;;;;4.47;0.30;;;;;;;;;;5326143;28;20028;-64
2022/09/27 04:07:48;;;;;;;9.63;0.95;;;;;;;;;;5324765;28;20051;-64
2022/09/27 04:10:20;;;;;;;2.20;0.20;;;;;;;;;;5325941;28;20020;-64
2022/09/27 04:12:51;;;;;;;4.72;0.55;;;;;;;;;;5325247;28;20008;-64
2022/09/27 04:15:22;;;;;;;5.24;0.58;;;;;;;;;;5324414;28;20024;-65
2022/09/27 04:17:54;;;;;;;4.28;0.17;;;;;;;;;;5325269;28;20019;-66
2022/09/27 04:20:25;;;;;;;4.15;0.20;;;;;;;;;;5325321;28;20351;-65
2022/09/27 04:22:56;;;;;;;3.72;0.32;;;;;;;;;;5325010;28;20366;-63
2022/09/27 04:25:28;;;;;;;3.97;0.10;;;;;;;;;;5324713;28;20042;-64
2022/09/27 04:28:00;;;;;;;3.10;0.20;;;;;;;;;;5325217;28;20057;-64
2022/09/27 04:30:31;;;;;;;4.75;0.30;;;;;;;;;;5325071;28;20016;-64
2022/09/27 04:33:02;;;;;;;2.03;0.10;;;;;;;;;;5325527;28;20012;-63
2022/09/27 04:38:23;;;;;;;5.97;0.25;;;;;;;;;;5325445;28;20382;-63
2022/09/27 04:40:54;;;;;;;6.25;0.20;;;;;;;;;;5324994;28;20024;-64
2022/09/27 04:43:25;;;;;;;5.20;0.20;;;;;;;;;;5323992;28;20023;-64
2022/09/27 04:45:56;;;;;;;2.70;0.20;;;;;;;;;;5325053;28;20038;-64
2022/09/27 04:48:28;;;;;;;2.12;0.16;;;;;;;;;;5324394;28;20072;-64
2022/09/27 04:51:01;;;;;;;2.63;0.20;;;;;;;;;;5323985;28;20054;-63
2022/09/27 04:53:32;;;;;;;2.20;0.10;;;;;;;;;;5324527;28;20012;-63
2022/09/27 04:56:04;;;;;;;1.73;0.10;;;;;;;;;;5325070;28;20027;-65
2022/09/27 04:58:36;;;;;;;2.03;0.10;;;;;;;;;;5323761;28;20026;-65
2022/09/27 05:01:08;;;;;;;3.92;0.20;;;;;;;;;;5324755;28;20410;-63
2022/09/27 05:03:39;;;;;;;3.08;0.20;;;;;;;;;;5323522;28;20019;-63
2022/09/27 05:06:10;;;;;;;3.90;0.50;;;;;;;;;;5324463;28;20035;-64
2022/09/27 05:08:41;;;;;;;4.63;0.20;;;;;;;;;;5323883;28;20023;-63
2022/09/27 05:11:12;;;;;;;2.06;0.30;;;;;;;;;;5323658;28;20490;-63
2022/09/27 05:13:43;;;;;;;2.55;0.20;;;;;;;;;;5323711;28;20331;-63
2022/09/27 05:16:15;;;;;;;1.98;0.10;;;;;;;;;;5324583;28;20470;-63
2022/09/27 05:18:47;;;;;;;2.55;0.15;;;;;;;;;;5322895;28;20744;-63
2022/09/27 05:21:18;;;;;;;3.33;0.17;;;;;;;;;;5324294;28;20027;-63
2022/09/27 05:23:49;;;;;;;1.96;0.10;;;;;;;;;;5323679;28;20019;-63
2022/09/27 05:26:20;;;;;;;1.20;0.10;;;;;;;;;;5323383;28;20044;-63
2022/09/27 05:28:51;;;;;;;2.22;0.10;;;;;;;;;;5322643;28;20068;-63
2022/09/27 05:31:24;;;;;;;2.10;0.10;;;;;;;;;;5323063;28;20024;-64
2022/09/27 05:33:55;;;;;;;2.80;0.10;;;;;;;;;;5323661;28;20394;-64
2022/09/27 05:36:26;;;;;;;1.80;0.20;;;;;;;;;;5323140;28;20028;-63
2022/09/27 05:38:57;;;;;;;1.00;0.10;;;;;;;;;;5323108;28;20152;-63
2022/09/27 05:41:28;;;;;;;3.17;0.40;;;;;;;;;;5323127;28;20024;-64
2022/09/27 05:44:00;;;;;;;2.70;0.20;;;;;;;;;;5323914;28;20371;-63
2022/09/27 05:46:31;;;;;;;2.08;0.30;;;;;;;;;;5322530;28;20064;-63
2022/09/27 05:49:02;;;;;;;1.30;0.10;;;;;;;;;;5323790;28;20035;-64
2022/09/27 05:51:33;;;;;;;3.33;0.28;;;;;;;;;;5322991;28;20055;-64
2022/09/27 05:54:04;;;;;;;2.28;0.15;;;;;;;;;;5322824;28;20273;-64
2022/09/27 05:56:35;;;;;;;4.00;0.20;;;;;;;;;;5323011;28;20501;-63
2022/09/27 05:59:07;;;;;;;1.58;0.17;;;;;;;;;;5323686;28;20523;-63
2022/09/27 06:01:38;;;;;;;2.85;0.20;;;;;;;;;;5322329;28;20019;-64
2022/09/27 06:04:09;;;;;;;1.85;0.15;;;;;;;;;;5323549;28;20441;-64
2022/09/27 06:06:40;;;;;;;3.55;0.20;;;;;;;;;;5322061;28;20427;-64
2022/09/27 06:09:12;;;;;;;2.05;0.20;;;;;;;;;;5323801;28;20184;-64
2022/09/27 06:11:44;;;;;;;1.30;0.20;;;;;;;;;;5322844;28;20027;-64
2022/09/27 06:14:15;;;;;;;0.70;0.20;;;;;;;;;;5323100;28;20016;-64
2022/09/27 06:16:47;;;;;;;1.10;0.10;;;;;;;;;;5323009;28;20026;-64
2022/09/27 06:19:18;;;;;;;3.53;0.20;;;;;;;;;;5323573;28;20123;-64
2022/09/27 06:21:49;;;;;;;2.13;0.20;;;;;;;;;;5322002;28;20098;-64
2022/09/27 06:24:21;;;;;;;2.28;0.22;;;;;;;;;;5323403;28;20204;-64
2022/09/27 06:26:52;;;;;;;2.83;0.20;;;;;;;;;;5322934;28;20031;-63
2022/09/27 06:29:23;;;;;;;1.10;0.10;;;;;;;;;;5322672;28;20095;-64
2022/09/27 06:31:54;;;;;;;1.33;0.40;;;;;;;;;;5323355;28;20023;-64
2022/09/27 06:34:26;;;;;;;0.98;0.20;;;;;;;;;;5322684;28;20028;-63
2022/09/27 06:36:57;;;;;;;1.73;0.30;;;;;;;;;;5323003;28;20399;-64
2022/09/27 06:39:28;;;;;;;1.34;0.30;;;;;;;;;;5324819;28;20041;-64
2022/09/27 06:41:59;;;;;;;1.48;0.30;;;;;;;;;;5326928;28;20077;-64
2022/09/27 06:44:30;;;;;;;1.67;0.30;;;;;;;;;;5326911;28;20107;-64
2022/09/27 06:47:02;;;;;;;1.80;0.38;;;;;;;;;;5327346;28;20035;-64
2022/09/27 06:49:33;;;;;;;1.85;0.40;;;;;;;;;;5325684;28;20466;-64
2022/09/27 06:52:05;;;;;;;1.45;0.40;;;;;;;;;;5327608;28;20492;-63
2022/09/27 06:54:36;;;;;;;1.92;0.50;;;;;;;;;;5326600;28;20015;-64
2022/09/27 06:57:07;;;;;;;3.20;0.63;;;;;;;;;;5326561;28;20016;-64
2022/09/27 07:02:28;;;;;;;1.33;0.50;;;;;;;;;;5326596;28;20028;-64
2022/09/27 07:04:59;;;;;;;4.32;0.60;;;;;;;;;;5326367;28;20064;-63
2022/09/27 07:07:30;;;;;;;2.00;0.70;;;;;;;;;;5326409;28;20082;-64
2022/09/27 07:10:01;;;;;;;2.10;0.60;;;;;;;;;;5326236;28;20062;-64
2022/09/27 07:12:34;;;;;;;6.47;0.60;;;;;;;;;;5326660;28;20092;-66
2022/09/27 07:15:06;;;;;;;2.35;0.50;;;;;;;;;;5327136;28;20045;-64
2022/09/27 07:17:37;;;;;;;2.65;0.60;;;;;;;;;;5325737;28;20024;-64
2022/09/27 07:20:08;;;;;;;3.17;0.98;;;;;;;;;;5326892;28;20170;-64
2022/09/27 07:22:41;;;;;;;3.45;0.55;;;;;;;;;;5326139;28;20047;-64
2022/09/27 07:25:13;;;;;;;3.10;0.50;;;;;;;;;;5326090;28;20113;-64
2022/09/27 07:27:44;;;;;;;1.95;0.50;;;;;;;;;;5326289;28;20032;-65
2022/09/27 07:30:15;;;;;;;1.50;0.50;;;;;;;;;;5326858;28;20050;-65
2022/09/27 07:32:47;;;;;;;5.38;1.33;;;;;;;;;;5325370;28;20023;-65
2022/09/27 07:35:18;;;;;;;1.98;0.70;;;;;;;;;;5326278;28;20028;-65
2022/09/27 07:37:49;;;;;;;2.92;0.80;;;;;;;;;;5326104;28;20161;-65
2022/09/27 07:40:20;;;;;;;3.42;0.70;;;;;;;;;;5325674;28;20020;-65
2022/09/27 07:42:55;;;;;;;2.78;0.90;;;;;;;;;;5325660;28;20110;-65
2022/09/27 07:45:27;;;;;;;2.80;0.80;;;;;;;;;;5324928;28;20019;-64
2022/09/27 07:47:58;;;;;;;2.63;0.90;;;;;;;;;;5326290;28;20012;-65
2022/09/27 07:50:29;;;;;;;4.07;1.17;;;;;;;;;;5324382;28;20051;-65
2022/09/27 07:53:00;;;;;;;3.52;1.18;;;;;;;;;;5325277;28;20378;-65
2022/09/27 07:55:31;;;;;;;3.75;1.30;;;;;;;;;;5321492;28;20361;-65
2022/09/27 07:58:03;;;;;;;6.00;1.60;;;;;;;;;;5325750;28;20033;-65
2022/09/27 08:00:36;;;;;;;3.25;1.60;;;;;;;;;;5322779;28;20110;-65
2022/09/27 08:03:09;;;;;;;3.10;1.33;;;;;;;;;;5322674;28;20040;-65
2022/09/27 08:05:44;;;;;;;3.13;1.77;;;;;;;;;;5324954;28;20031;-65
2022/09/27 08:08:16;;;;;;;4.35;1.70;;;;;;;;;;5324485;28;20031;-66
2022/09/27 08:10:47;;;;;;;3.55;1.80;;;;;;;;;;5324952;28;20335;-65
2022/09/27 08:13:18;;;;;;;5.22;1.77;;;;;;;;;;5324526;28;20090;-65
2022/09/27 08:15:51;;;;;;;3.55;1.98;;;;;;;;;;5324821;28;20094;-64
2022/09/27 08:18:23;;;;;;;7.68;2.20;;;;;;;;;;5325542;28;20434;-64
2022/09/27 08:20:55;;;;;;;4.50;2.60;;;;;;;;;;5324121;27;20020;-65
2022/09/27 08:23:26;;;;;;;5.28;2.80;;;;;;;;;;5324600;28;20026;-64
2022/09/27 08:25:58;;;;;;;5.25;2.90;;;;;;;;;;5325464;28;20074;-65
2022/09/27 08:28:30;;;;;;;5.00;2.45;;;;;;;;;;5323964;28;20144;-65
2022/09/27 08:31:01;;;;;;;5.65;3.08;;;;;;;;;;5325245;28;20466;-64
2022/09/27 08:33:33;;;;;;;6.97;3.55;;;;;;;;;;5324343;28;20145;-64
2022/09/27 08:36:09;;;;;;;7.18;4.93;;;;;;;;;;5324622;27;20031;-64
2022/09/27 08:38:40;;;;;;;5.63;4.70;;;;;;;;;;5324382;28;20026;-65
2022/09/27 08:41:15;;;;;;;7.32;4.55;;;;;;;;;;5324380;28;20019;-65
2022/09/27 08:43:49;;;;;;;7.47;5.60;;;;;;;;;;5323738;28;20007;-64
2022/09/27 08:46:37;;;;;;;5.88;5.35;;;;;;;;;;5324927;28;20036;-65
2022/09/27 08:49:15;;;;;;;7.05;6.35;;;;;;;;;;5324295;28;20319;-65
2022/09/27 08:51:48;;;;;;;7.13;6.20;;;;;;;;;;5324358;28;20180;-66
2022/09/27 08:54:24;;;;;;;10.55;6.97;;;;;;;;;;5325016;28;20019;-65
2022/09/27 08:57:02;;;;;;;10.05;7.90;;;;;;;;;;5323882;28;20545;-65
2022/09/27 08:59:40;;;;;;;9.95;7.78;;;;;;;;;;5324562;27;20041;-65
2022/09/27 09:02:19;;;;;;;9.10;8.13;;;;;;;;;;5324604;28;20459;-66
2022/09/27 09:04:52;;;;;;;11.65;7.63;;;;;;;;;;5324103;28;20027;-66
2022/09/27 09:07:35;;;;;;;10.48;7.90;;;;;;;;;;5324872;28;20024;-66
2022/09/27 09:12:45;;;;;;;7.85;7.15;;;;;;;;;;5324020;28;20095;-65
2022/09/27 09:13:30;;;;;;;7.35;6.70;;;;;;;;;;5324841;28;20470;-66
2022/09/27 09:16:16;;;;;;;8.32;7.45;;;;;;;;;;5295510;28;20182;-65
2022/09/27 09:18:50;;;;;;;10.18;6.80;;;;;;;;;;5323075;28;20455;-65
2022/09/27 09:21:40;;;;;;;9.90;8.73;;;;;;;;;;5324550;28;20098;-64
2022/09/27 09:24:23;;;;;;;8.85;7.95;;;;;;;;;;5323961;28;20090;-65
2022/09/27 09:27:13;;;;;;;9.82;8.82;;;;;;;;;;5324063;28;20044;-64
2022/09/27 09:29:49;;;;;;;9.52;8.65;;;;;;;;;;5323740;28;20069;-65
2022/09/27 09:32:43;;;;;;;10.23;9.23;;;;;;;;;;5323504;28;20118;-64
2022/09/27 09:35:16;;;;;;;11.73;8.98;;;;;;;;;;5324316;28;20377;-66
2022/09/27 09:37:49;;;;;;;11.23;9.90;;;;;;;;;;5323010;28;20011;-65
2022/09/27 09:40:24;;;;;;;11.82;10.30;;;;;;;;;;5324202;28;20403;-65
2022/09/27 09:43:06;;;;;;;13.02;10.98;;;;;;;;;;5324245;28;20416;-64
2022/09/27 09:45:43;;;;;;;12.32;10.80;;;;;;;;;;5322617;28;20072;-65
2022/09/27 09:48:16;;;;;;;12.93;10.50;;;;;;;;;;5324016;28;20110;-66
2022/09/27 09:50:50;;;;;;;11.32;10.20;;;;;;;;;;5323066;28;20050;-64
2022/09/27 09:53:35;;;;;;;10.60;9.27;;;;;;;;;;5323266;28;20092;-66
2022/09/27 09:56:23;;;;;;;9.82;6.75;;;;;;;;;;5324079;27;20099;-65
2022/09/27 09:58:57;;;;;;;6.03;5.43;;;;;;;;;;5322691;28;20023;-65
2022/09/27 10:01:37;;;;;;;7.32;4.97;;;;;;;;;;5323342;28;20012;-64
2022/09/27 10:04:19;;;;;;;4.38;3.97;;;;;;;;;;5323973;28;20023;-65
2022/09/27 10:06:50;;;;;;;3.33;2.33;;;;;;;;;;5322500;28;20470;-64
2022/09/27 10:09:25;;;;;;;3.75;2.08;;;;;;;;;;5323654;28;20173;-66
2022/09/27 10:11:57;;;;;;;4.13;1.60;;;;;;;;;;5323681;28;20026;-65
2022/09/27 10:14:28;;;;;;;3.00;1.10;;;;;;;;;;5327021;28;20470;-66
2022/09/27 10:17:02;;;;;;;1.88;0.70;;;;;;;;;;5331059;27;20114;-65
2022/09/27 10:19:35;;;;;;;2.83;0.60;;;;;;;;;;5330335;27;20107;-65
2022/09/27 10:22:17;;;;;;;2.72;0.57;;;;;;;;;;5329881;27;20051;-65
2022/09/27 10:24:54;;;;;;;1.80;0.50;;;;;;;;;;5330337;27;20019;-64
2022/09/27 10:27:26;;;;;;;3.00;0.40;;;;;;;;;;5329721;27;20381;-65
2022/09/27 10:29:58;;;;;;;1.58;0.30;;;;;;;;;;5330740;27;20020;-65
2022/09/27 10:32:31;;;;;;;3.60;0.28;;;;;;;;;;5330154;27;20028;-65
2022/09/27 10:35:38;;;;;;;1.27;0.20;;;;;;;;;;5330002;27;20043;-65
2022/09/27 10:38:21;;;;;;;1.63;0.10;;;;;;;;;;5265094;28;20032;-65
2022/09/27 10:40:54;;;;;;;0.98;0.10;;;;;;;;;;5323503;27;20019;-65
2022/09/27 10:43:28;;;;;;;1.42;0.10;;;;;;;;;;5330275;27;20023;-65
2022/09/27 10:46:15;;;;;;;0.88;0.10;;;;;;;;;;5330603;27;20035;-65
2022/09/27 10:48:46;;;;;;;0.98;0.10;;;;;;;;;;5329323;27;20474;-65
2022/09/27 10:51:21;;;;;;;2.50;0.17;;;;;;;;;;5330326;27;20126;-64
2022/09/27 10:53:52;;;;;;;1.02;0.10;;;;;;;;;;5330103;27;20350;-65
2022/09/27 10:56:28;;;;;;;2.80;0.40;;;;;;;;;;5329568;27;20098;-65
2022/09/27 10:59:00;;;;;;;1.08;0.17;;;;;;;;;;5330434;28;20057;-64
2022/09/27 11:01:44;;;;;;;1.42;0.20;;;;;;;;;;5329662;27;20043;-64
2022/09/27 11:04:20;;;;;;;2.42;0.20;;;;;;;;;;5329671;27;20019;-63
2022/09/27 11:06:51;;;;;;;2.15;0.20;;;;;;;;;;5329871;27;20381;-64
2022/09/27 11:09:26;;;;;;;0.50;0.10;;;;;;;;;;5329620;27;20125;-65
2022/09/27 11:12:13;;;;;;;1.27;0.10;;;;;;;;;;5330372;27;20015;-64
2022/09/27 11:14:48;;;;;;;2.38;0.10;;;;;;;;;;5329490;27;20015;-64
2022/09/27 11:17:30;;;;;;;0.40;0.00;;;;;;;;;;5329589;27;20062;-65
2022/09/27 11:20:16;;;;;;;1.20;0.68;;;;;;;;;;5330041;27;20012;-64
2022/09/27 11:22:57;;;;;;;1.40;0.40;;;;;;;;;;5329707;27;20012;-64
2022/09/27 11:25:32;;;;;;;1.77;0.10;;;;;;;;;;5327792;27;20122;-64
2022/09/27 11:28:13;;;;;;;2.28;0.10;;;;;;;;;;5326362;28;20019;-64
2022/09/27 11:30:50;;;;;;;1.00;0.10;;;;;;;;;;5325343;28;20455;-64
2022/09/27 11:33:37;;;;;;;1.80;0.15;;;;;;;;;;5326691;28;20363;-64
2022/09/27 11:36:19;;;;;;;0.75;0.17;;;;;;;;;;5326998;28;20102;-65
2022/09/27 11:39:00;;;;;;;1.48;0.10;;;;;;;;;;5325155;28;20016;-65
2022/09/27 11:41:54;;;;;;;1.58;0.10;;;;;;;;;;5326156;28;20082;-65
2022/09/27 11:44:25;;;;;;;1.70;0.47;;;;;;;;;;5325180;28;20084;-65
2022/09/27 11:47:14;;;;;;;0.90;0.20;;;;;;;;;;5326263;27;20339;-64
2022/09/27 11:49:51;;;;;;;1.23;0.10;;;;;;;;;;5325654;28;20308;-64
2022/09/27 11:52:30;;;;;;;2.15;0.10;;;;;;;;;;5325354;27;20020;-64
2022/09/27 11:55:09;;;;;;;2.92;0.20;;;;;;;;;;5326376;27;20027;-64
2022/09/27 11:57:40;;;;;;;;;;;;;;;;;;5326232;28;20024;-65
2022/09/27 12:00:18;;;;;;;3.30;0.20;;;;;;;;;;5325404;28;19956;-65
2022/09/27 12:03:04;;;;;;;0.80;0.10;;;;;;;;;;5325645;28;20273;-64
2022/09/27 12:05:53;;;;;;;1.98;0.30;;;;;;;;;;5324617;28;20030;-65
2022/09/27 12:08:25;;;;;;;1.63;0.20;;;;;;;;;;5325928;28;20035;-65
2022/09/27 12:11:02;;;;;;;1.30;0.20;;;;;;;;;;5326365;28;20047;-65
2022/09/27 12:13:46;;;;;;;1.15;0.20;;;;;;;;;;5324985;28;20344;-65
2022/09/27 12:16:18;;;;;;;1.25;0.10;;;;;;;;;;5325960;28;20378;-65
2022/09/27 12:18:51;;;;;;;2.72;0.20;;;;;;;;;;5325444;28;20028;-65
2022/09/27 12:21:23;;;;;;;1.65;0.10;;;;;;;;;;5320887;28;20015;-65
2022/09/27 12:23:57;;;;;;;2.25;0.17;;;;;;;;;;5325322;28;20031;-64
2022/09/27 12:26:33;;;;;;;1.77;0.20;;;;;;;;;;5324121;28;20023;-65
2022/09/27 12:29:13;;;;;;;1.80;0.10;;;;;;;;;;5325783;28;20045;-65
2022/09/27 12:31:50;;;;;;;1.70;0.20;;;;;;;;;;5325153;28;20035;-64
2022/09/27 12:34:25;;;;;;;1.33;0.20;;;;;;;;;;5324758;28;20390;-64
2022/09/27 12:37:07;;;;;;;2.15;0.10;;;;;;;;;;5325239;28;20023;-64
2022/09/27 12:39:41;;;;;;;2.15;0.20;;;;;;;;;;5324813;28;20369;-65
2022/09/27 12:42:16;;;;;;;1.08;0.10;;;;;;;;;;5324542;28;20028;-65
2022/09/27 12:44:48;;;;;;;1.88;0.30;;;;;;;;;;5323987;28;20047;-65
2022/09/27 12:47:38;;;;;;;1.90;0.20;;;;;;;;;;5325145;27;20542;-64
2022/09/27 12:50:23;;;;;;;0.77;0.13;;;;;;;;;;5325057;28;20074;-65
2022/09/27 12:53:03;;;;;;;1.58;0.20;;;;;;;;;;5325110;28;20064;-65
2022/09/27 12:55:43;;;;;;;0.80;0.20;;;;;;;;;;5323345;28;20016;-65
2022/09/27 12:58:24;;;;;;;1.65;0.13;;;;;;;;;;5324685;27;20027;-65
2022/09/27 13:01:00;;;;;;;2.30;0.28;;;;;;;;;;5324811;28;20236;-65
2022/09/27 13:03:43;;;;;;;1.25;0.20;;;;;;;;;;5323052;28;20023;-65
2022/09/27 13:06:23;;;;;;;3.00;0.20;;;;;;;;;;5324390;28;20031;-65
2022/09/27 13:09:00;;;;;;;0.93;0.20;;;;;;;;;;5317095;28;20028;-65
2022/09/27 13:11:56;;;;;;;1.35;0.40;;;;;;;;;;5303418;28;20020;-65
2022/09/27 13:14:30;;;;;;;2.13;0.20;;;;;;;;;;5303146;28;20060;-66
2022/09/27 13:17:01;;;;;;;1.27;0.20;;;;;;;;;;5303513;28;20461;-66
2022/09/27 13:19:38;;;;;;;1.65;0.10;;;;;;;;;;5307690;28;20020;-66
2022/09/27 13:22:09;;;;;;;1.55;0.20;;;;;;;;;;5321311;28;20071;-66
2022/09/27 13:24:42;;;;;;;2.45;0.30;;;;;;;;;;5338695;27;20019;-63
2022/09/27 13:27:34;;;;;;;3.17;0.30;;;;;;;;;;5344503;27;20339;-66
2022/09/27 13:30:05;;;;;;;2.88;0.20;;;;;;;;;;5327875;27;20029;-66
2022/09/27 13:32:36;;;;;;;3.90;0.40;;;;;;;;;;5323168;28;20458;-66
2022/09/27 13:35:18;;;;;;;2.60;0.28;;;;;;;;;;5323623;28;20356;-66
2022/09/27 13:37:58;;;;;;;1.95;0.30;;;;;;;;;;5321949;28;20031;-66
2022/09/27 13:40:32;;;;;;;3.53;0.25;;;;;;;;;;5322940;28;20031;-65
2022/09/27 13:43:10;;;;;;;1.83;0.28;;;;;;;;;;5323168;28;20042;-65
2022/09/27 13:46:00;;;;;;;1.20;0.30;;;;;;;;;;5322094;28;20076;-65
2022/09/27 13:48:42;;;;;;;1.33;0.38;;;;;;;;;;5321450;28;20068;-70
2022/09/27 13:51:19;;;;;;;2.63;0.40;;;;;;;;;;5322341;28;20513;-65
2022/09/27 13:53:57;;;;;;;3.85;0.40;;;;;;;;;;5322404;28;20479;-65
2022/09/27 13:56:47;;;;;;;4.95;0.40;;;;;;;;;;5322357;28;20020;-65
2022/09/27 13:59:29;;;;;;;2.65;0.60;;;;;;;;;;5323521;28;20115;-66
2022/09/27 14:02:17;;;;;;;3.45;0.30;;;;;;;;;;5324181;28;20106;-66
2022/09/27 14:04:50;;;;;;;4.60;0.60;;;;;;;;;;5322781;28;20425;-66
2022/09/27 14:07:25;;;;;;;4.13;0.50;;;;;;;;;;5324014;28;20117;-65
2022/09/27 14:09:59;;;;;;;1.60;0.50;;;;;;;;;;5323938;28;20020;-66
2022/09/27 14:12:32;;;;;;;4.50;0.70;;;;;;;;;;5322374;28;20424;-66
2022/09/27 14:15:05;;;;;;;5.22;1.08;;;;;;;;;;5323808;28;20091;-66
2022/09/27 14:17:44;;;;;;;1.83;0.20;;;;;;;;;;5323026;28;20076;-65
2022/09/27 14:20:31;;;;;;;1.23;0.30;;;;;;;;;;5322769;28;20027;-65
2022/09/27 14:23:03;;;;;;;2.28;0.30;;;;;;;;;;5323259;28;20115;-66
2022/09/27 14:25:37;;;;;;;2.30;0.30;;;;;;;;;;5322912;28;20426;-67
2022/09/27 14:28:23;;;;;;;5.13;0.57;;;;;;;;;;5323179;28;20427;-66
2022/09/27 14:31:12;;;;;;;2.03;0.10;;;;;;;;;;5323406;28;20015;-66
2022/09/27 14:33:44;;;;;;;0.57;0.10;;;;;;;;;;5322082;28;20063;-66
2022/09/27 14:39:19;;;;;;;1.10;0.10;;;;;;;;;;5324001;28;20028;-66
2022/09/27 14:41:50;;;;;;;2.30;0.20;;;;;;;;;;5322408;28;20020;-65
2022/09/27 14:44:22;;;;;;;1.90;0.20;;;;;;;;;;5323586;28;20026;-66
2022/09/27 14:47:07;;;;;;;2.05;0.20;;;;;;;;;;5322672;28;20467;-65
2022/09/27 14:49:45;;;;;;;1.75;0.20;;;;;;;;;;5322592;28;20119;-66
2022/09/27 14:52:18;;;;;;;2.25;0.20;;;;;;;;;;5323419;28;20300;-65
2022/09/27 14:55:01;;;;;;;2.45;0.20;;;;;;;;;;5321776;28;20480;-65
2022/09/27 14:57:34;;;;;;;4.40;0.20;;;;;;;;;;5322805;28;20031;-66
2022/09/27 15:00:17;;;;;;;1.77;0.20;;;;;;;;;;5324757;28;20201;-65
2022/09/27 15:02:49;;;;;;;1.83;0.30;;;;;;;;;;5325841;28;20019;-65
2022/09/27 15:05:22;;;;;;;2.40;0.22;;;;;;;;;;5327184;28;20020;-65
2022/09/27 15:07:55;;;;;;;3.28;0.20;;;;;;;;;;5326906;28;20390;-65
2022/09/27 15:10:30;;;;;;;1.02;0.20;;;;;;;;;;5326073;28;20090;-65
2022/09/27 15:13:03;;;;;;;1.70;0.20;;;;;;;;;;5327175;27;20050;-65
2022/09/27 15:15:37;;;;;;;2.63;0.20;;;;;;;;;;5325661;28;20108;-65
2022/09/27 15:18:27;;;;;;;1.92;0.20;;;;;;;;;;5327279;28;20027;-66
2022/09/27 15:20:58;;;;;;;3.00;0.43;;;;;;;;;;5327135;28;20060;-66
2022/09/27 15:23:34;;;;;;;3.72;0.40;;;;;;;;;;5325673;28;20073;-66
2022/09/27 15:26:11;;;;;;;3.55;0.70;;;;;;;;;;5326634;28;20028;-67
2022/09/27 15:28:44;;;;;;;2.45;0.77;;;;;;;;;;5326528;28;20134;-67
2022/09/27 15:31:15;;;;;;;3.22;0.70;;;;;;;;;;5326100;28;20016;-67
2022/09/27 15:33:54;;;;;;;1.75;0.30;;;;;;;;;;5326365;28;20026;-67
2022/09/27 15:36:43;;;;;;;2.67;0.30;;;;;;;;;;5325433;28;20378;-66
2022/09/27 15:39:19;;;;;;;2.38;0.55;;;;;;;;;;5322418;28;20024;-66
2022/09/27 15:42:02;;;;;;;6.03;0.50;;;;;;;;;;5326183;28;20099;-66